Time;durP1;ratioP1;P1;durP2;ratioP2;P2;SDS_P1;SDS_P2;PMS_P1;PMS_P2;Temp;Humidity;BMP_temperature;BMP_pressure;BME280_temperature;BME280_humidity;BME280_pressure;Samples;Min_cycle;Max_cycle;Signal;HPM_P1;HPM_P2
2023/12/26 00:00:59;;;;;;;;;;;;;;;9.74;100.00;98201.23;109537;1251;67894;-76
2023/12/26 00:03:42;;;;;;;;;;;;;;;9.74;100.00;98192.77;109537;1251;60216;-76
2023/12/26 00:06:09;;;;;;;;;;;;;;;9.77;100.00;98195.89;109249;1251;60059;-77
2023/12/26 00:08:35;;;;;;;;;;;;;;;9.75;100.00;98199.55;109547;1251;59773;-76
2023/12/26 00:11:02;;;;;;;;;;;;;;;9.73;100.00;98194.97;109542;1251;60664;-77
2023/12/26 00:13:28;;;;;;;;;;;;;;;9.70;100.00;98193.23;109588;1251;67777;-76
2023/12/26 00:15:55;;;;;;;;;;;;;;;9.67;100.00;98193.27;109367;1251;61082;-77
2023/12/26 00:18:21;;;;;;;;;;;;;;;9.65;100.00;98191.46;109565;1251;59821;-76
2023/12/26 00:20:48;;;;;;;;;;;;;;;9.63;100.00;98194.09;109350;1251;60126;-76
2023/12/26 00:23:15;;;;;;;;;;;;;;;9.59;100.00;98193.88;109574;1251;59987;-77
2023/12/26 00:25:44;;;;;;;;;;;;;;;9.59;100.00;98191.23;109586;1251;66982;-77
2023/12/26 00:28:13;;;;;;;;;;;;;;;9.61;100.00;98196.19;109532;1255;61048;-77
2023/12/26 00:30:40;;;;;;;;;;;;;;;9.63;100.00;98196.41;109568;1251;65086;-75
2023/12/26 00:33:07;;;;;;;;;;;;;;;9.64;100.00;98200.36;109560;1251;60082;-76
2023/12/26 00:35:33;;;;;;;;;;;;;;;9.66;100.00;98200.25;109543;1255;59780;-77
2023/12/26 00:38:01;;;;;;;;;;;;;;;9.65;100.00;98193.21;109598;1251;60488;-77
2023/12/26 00:40:28;;;;;;;;;;;;;;;9.65;100.00;98188.80;109606;1251;61261;-77
2023/12/26 00:42:54;;;;;;;;;;;;;;;9.66;100.00;98189.45;109523;1251;64193;-77
2023/12/26 00:45:22;;;;;;;;;;;;;;;9.66;100.00;98185.54;109548;1251;59969;-75
2023/12/26 00:47:49;;;;;;;;;;;;;;;9.69;100.00;98180.20;109579;1251;60635;-76
2023/12/26 00:50:16;;;;;;;;;;;;;;;9.71;100.00;98180.91;109553;1251;67761;-76
2023/12/26 00:52:43;;;;;;;;;;;;;;;9.71;100.00;98184.80;109562;1251;61066;-76
2023/12/26 00:55:10;;;;;;;;;;;;;;;9.71;100.00;98186.59;109541;1251;64033;-78
2023/12/26 00:57:36;;;;;;;;;;;;;;;9.67;100.00;98188.30;109481;1251;60026;-76
2023/12/26 01:00:06;;;;;;;;;;;;;;;9.67;100.00;98189.30;109567;1251;59780;-76
2023/12/26 01:02:33;;;;;;;;;;;;;;;9.71;100.00;98190.67;109586;1251;67926;-75
2023/12/26 01:04:59;;;;;;;;;;;;;;;9.73;100.00;98191.38;109540;1251;60021;-77
2023/12/26 01:07:26;;;;;;;;;;;;;;;9.75;100.00;98195.70;109558;1251;63826;-76
2023/12/26 01:09:52;;;;;;;;;;;;;;;9.76;100.00;98189.94;109499;1251;59787;-76
2023/12/26 01:12:19;;;;;;;;;;;;;;;9.80;100.00;98192.63;109570;1251;59823;-76
2023/12/26 01:14:45;;;;;;;;;;;;;;;9.82;100.00;98196.38;109559;1251;66916;-76
2023/12/26 01:17:12;;;;;;;;;;;;;;;9.84;100.00;98201.20;109560;1251;61093;-76
2023/12/26 01:19:38;;;;;;;;;;;;;;;9.83;100.00;98203.19;109542;1251;59945;-77
2023/12/26 01:22:05;;;;;;;;;;;;;;;9.85;100.00;98204.10;109573;1251;59792;-76
2023/12/26 01:24:31;;;;;;;;;;;;;;;9.86;100.00;98197.65;109539;1251;59847;-76
2023/12/26 01:26:58;;;;;;;;;;;;;;;9.87;100.00;98190.13;109576;1251;59783;-76
2023/12/26 01:29:24;;;;;;;;;;;;;;;9.87;100.00;98196.67;109551;1251;59986;-76
2023/12/26 01:31:51;;;;;;;;;;;;;;;9.88;100.00;98197.66;109556;1251;60127;-76
2023/12/26 01:34:18;;;;;;;;;;;;;;;9.87;100.00;98196.84;109543;1251;59974;-77
2023/12/26 01:36:44;;;;;;;;;;;;;;;9.87;100.00;98197.04;109524;1251;59795;-76
2023/12/26 01:39:12;;;;;;;;;;;;;;;9.87;100.00;98197.23;109547;1251;60508;-76
2023/12/26 01:41:39;;;;;;;;;;;;;;;9.87;100.00;98196.69;109594;1251;61006;-76
2023/12/26 01:44:05;;;;;;;;;;;;;;;9.88;100.00;98194.35;109531;1251;60129;-76
2023/12/26 01:46:32;;;;;;;;;;;;;;;9.87;100.00;98192.27;109585;1251;59998;-76
2023/12/26 01:48:59;;;;;;;;;;;;;;;9.85;100.00;98187.23;109538;1251;59840;-76
2023/12/26 01:51:25;;;;;;;;;;;;;;;9.82;100.00;98185.77;109536;1251;67822;-76
2023/12/26 01:53:52;;;;;;;;;;;;;;;9.80;100.00;98186.44;109567;1251;61079;-74
2023/12/26 01:56:18;;;;;;;;;;;;;;;9.79;100.00;98183.80;109556;1251;65173;-76
2023/12/26 01:58:48;;;;;;;;;;;;;;;9.79;100.00;98180.45;109393;1251;59797;-76
2023/12/26 02:01:15;;;;;;;;;;;;;;;9.78;100.00;98173.11;109549;1251;59877;-76
2023/12/26 02:03:42;;;;;;;;;;;;;;;9.79;100.00;98178.00;109631;1251;67660;-75
2023/12/26 02:06:09;;;;;;;;;;;;;;;9.81;100.00;98175.02;109367;1251;59873;-76
2023/12/26 02:08:36;;;;;;;;;;;;;;;9.81;100.00;98175.36;109525;1251;65096;-75
2023/12/26 02:11:06;;;;;;;;;;;;;;;9.81;100.00;98174.46;109530;1252;59698;-74
2023/12/26 02:13:34;;;;;;;;;;;;;;;9.82;100.00;98173.33;109570;1251;59967;-75
2023/12/26 02:16:04;;;;;;;;;;;;;;;9.82;100.00;98176.86;109587;1251;67842;-75
2023/12/26 02:18:30;;;;;;;;;;;;;;;9.82;100.00;98178.65;109593;1251;61796;-76
2023/12/26 02:20:57;;;;;;;;;;;;;;;9.81;100.00;98180.09;109561;1251;63992;-75
2023/12/26 02:23:25;;;;;;;;;;;;;;;9.80;100.00;98184.30;109507;1251;59812;-76
2023/12/26 02:25:52;;;;;;;;;;;;;;;9.79;100.00;98181.05;109527;1251;59904;-76
2023/12/26 02:28:19;;;;;;;;;;;;;;;9.78;100.00;98174.90;109555;1251;67996;-76
2023/12/26 02:30:46;;;;;;;;;;;;;;;9.77;100.00;98175.09;109578;1251;60254;-76
2023/12/26 02:33:14;;;;;;;;;;;;;;;9.78;100.00;98166.86;109512;1251;64997;-76
2023/12/26 02:35:40;;;;;;;;;;;;;;;9.79;100.00;98167.90;109494;1251;60098;-76
2023/12/26 02:38:07;;;;;;;;;;;;;;;9.80;100.00;98166.73;109556;1251;59905;-76
2023/12/26 02:40:33;;;;;;;;;;;;;;;9.80;100.00;98160.17;109549;1251;60443;-76
2023/12/26 02:43:00;;;;;;;;;;;;;;;9.80;100.00;98156.05;109574;1251;59780;-76
2023/12/26 02:45:26;;;;;;;;;;;;;;;9.81;100.00;98152.28;109501;1251;60138;-76
2023/12/26 02:47:53;;;;;;;;;;;;;;;9.82;100.00;98143.88;109557;1251;59830;-76
2023/12/26 02:50:19;;;;;;;;;;;;;;;9.82;100.00;98132.69;109536;1251;59915;-76
2023/12/26 02:52:46;;;;;;;;;;;;;;;9.80;100.00;98126.42;109576;1251;60301;-75
2023/12/26 02:55:12;;;;;;;;;;;;;;;9.78;100.00;98123.05;109586;1251;59768;-76
2023/12/26 02:57:39;;;;;;;;;;;;;;;9.75;100.00;98124.00;109580;1251;59875;-75
2023/12/26 03:00:34;;;;;;;;;;;;;;;9.73;100.00;98121.17;109519;1251;59759;-76
2023/12/26 03:03:00;;;;;;;;;;;;;;;9.70;100.00;98112.31;109576;1251;60196;-76
2023/12/26 03:05:27;;;;;;;;;;;;;;;9.71;100.00;98112.10;109334;1251;65479;-77
2023/12/26 03:07:54;;;;;;;;;;;;;;;9.72;100.00;98110.57;109549;1251;59798;-76
2023/12/26 03:10:20;;;;;;;;;;;;;;;9.74;100.00;98109.71;109551;1251;65051;-76
2023/12/26 03:12:47;;;;;;;;;;;;;;;9.75;100.00;98109.13;109529;1251;59801;-76
2023/12/26 03:15:15;;;;;;;;;;;;;;;9.76;100.00;98109.55;109541;1251;59878;-76
2023/12/26 03:17:42;;;;;;;;;;;;;;;9.76;100.00;98107.78;109601;1251;67870;-75
2023/12/26 03:20:09;;;;;;;;;;;;;;;9.76;100.00;98110.40;109620;1251;61078;-76
2023/12/26 03:22:35;;;;;;;;;;;;;;;9.78;100.00;98111.34;109561;1251;65305;-76
2023/12/26 03:25:02;;;;;;;;;;;;;;;9.81;100.00;98104.38;109558;1251;59902;-76
2023/12/26 03:27:29;;;;;;;;;;;;;;;9.85;100.00;98101.94;109534;1251;59710;-76
2023/12/26 03:29:56;;;;;;;;;;;;;;;9.87;100.00;98101.59;109565;1251;67769;-76
2023/12/26 03:32:22;;;;;;;;;;;;;;;9.88;100.00;98100.45;109559;1251;61054;-76
2023/12/26 03:34:49;;;;;;;;;;;;;;;9.89;100.00;98101.46;109578;1251;59803;-76
2023/12/26 03:37:15;;;;;;;;;;;;;;;9.90;100.00;98103.86;109552;1251;59836;-76
2023/12/26 03:39:42;;;;;;;;;;;;;;;9.91;100.00;98102.70;109559;1251;59816;-76
2023/12/26 03:42:08;;;;;;;;;;;;;;;9.93;100.00;98099.04;109560;1251;60008;-76
2023/12/26 03:44:35;;;;;;;;;;;;;;;9.94;100.00;98091.73;109366;1251;61100;-76
2023/12/26 03:47:01;;;;;;;;;;;;;;;9.96;100.00;98082.24;109578;1251;59822;-76
2023/12/26 03:49:28;;;;;;;;;;;;;;;9.99;100.00;98084.36;109536;1251;59815;-75
2023/12/26 03:51:54;;;;;;;;;;;;;;;10.02;100.00;98076.61;109578;1251;59969;-77
2023/12/26 03:54:22;;;;;;;;;;;;;;;10.03;100.00;98073.52;109392;1251;66874;-76
2023/12/26 03:56:48;;;;;;;;;;;;;;;10.02;100.00;98066.35;109482;1251;115650;-76
2023/12/26 03:59:15;;;;;;;;;;;;;;;10.00;100.00;98060.45;109515;1251;63938;-75
2023/12/26 04:01:41;;;;;;;;;;;;;;;10.00;100.00;98054.95;109542;1251;59876;-76
2023/12/26 04:04:08;;;;;;;;;;;;;;;10.01;100.00;98051.50;109543;1251;59964;-76
2023/12/26 04:06:34;;;;;;;;;;;;;;;10.00;100.00;98048.45;109537;1251;59863;-76
2023/12/26 04:09:01;;;;;;;;;;;;;;;9.97;100.00;98053.46;109583;1250;59764;-76
2023/12/26 04:11:29;;;;;;;;;;;;;;;9.96;100.00;98058.01;109515;1251;60205;-75
2023/12/26 04:13:56;;;;;;;;;;;;;;;9.95;100.00;98056.63;109541;1251;59784;-74
2023/12/26 04:16:22;;;;;;;;;;;;;;;9.94;100.00;98052.44;109582;1251;59863;-76
2023/12/26 04:18:48;;;;;;;;;;;;;;;9.92;100.00;98047.85;109612;1251;60042;-76
2023/12/26 04:21:15;;;;;;;;;;;;;;;9.88;100.00;98041.39;109596;1251;59714;-76
2023/12/26 04:23:42;;;;;;;;;;;;;;;9.85;100.00;98039.98;109336;1256;64135;-76
2023/12/26 04:26:08;;;;;;;;;;;;;;;9.83;100.00;98035.92;109542;1251;59785;-75
2023/12/26 04:28:34;;;;;;;;;;;;;;;9.82;100.00;98029.99;109602;1251;59846;-75
2023/12/26 04:31:03;;;;;;;;;;;;;;;9.78;100.00;98021.02;109589;1251;59943;-75
2023/12/26 04:33:29;;;;;;;;;;;;;;;9.76;100.00;98014.69;109559;1251;60710;-76
2023/12/26 04:35:56;;;;;;;;;;;;;;;9.73;100.00;98016.87;109532;1251;65308;-75
2023/12/26 04:38:22;;;;;;;;;;;;;;;9.69;100.00;98016.81;109501;1251;59807;-77
2023/12/26 04:40:49;;;;;;;;;;;;;;;9.66;100.00;98015.59;109370;1251;59949;-76
2023/12/26 04:43:17;;;;;;;;;;;;;;;9.63;100.00;98013.52;109380;1251;66841;-76
2023/12/26 04:45:43;;;;;;;;;;;;;;;9.59;100.00;98013.15;109627;1251;60995;-76
2023/12/26 04:48:10;;;;;;;;;;;;;;;9.56;100.00;98022.98;109549;1251;65148;-77
2023/12/26 04:50:36;;;;;;;;;;;;;;;9.55;100.00;98029.63;109540;1251;59889;-76
2023/12/26 04:53:04;;;;;;;;;;;;;;;9.51;100.00;98025.71;109570;1251;59672;-76
2023/12/26 04:55:32;;;;;;;;;;;;;;;9.43;100.00;98028.92;109538;1251;67813;-77
2023/12/26 04:57:58;;;;;;;;;;;;;;;9.37;100.00;98026.39;109582;1251;60345;-77
2023/12/26 05:00:25;;;;;;;;;;;;;;;9.32;100.00;98024.31;109531;1251;65092;-77
2023/12/26 05:02:51;;;;;;;;;;;;;;;9.29;100.00;98024.94;109560;1251;59868;-76
2023/12/26 05:05:18;;;;;;;;;;;;;;;9.25;100.00;98020.27;109554;1251;59730;-76
2023/12/26 05:07:44;;;;;;;;;;;;;;;9.21;100.00;98014.28;109605;1251;61451;-75
2023/12/26 05:10:11;;;;;;;;;;;;;;;9.19;100.00;98012.52;109588;1250;59828;-76
2023/12/26 05:12:37;;;;;;;;;;;;;;;9.18;100.00;98012.06;109576;1250;60287;-75
2023/12/26 05:15:04;;;;;;;;;;;;;;;9.17;100.00;98004.52;109576;1251;60084;-75
2023/12/26 05:17:30;;;;;;;;;;;;;;;9.19;100.00;97995.37;109551;1251;59659;-76
2023/12/26 05:19:57;;;;;;;;;;;;;;;9.19;100.00;97990.56;109566;1251;60395;-75
2023/12/26 05:22:23;;;;;;;;;;;;;;;9.19;100.00;97985.92;109629;1251;59989;-76
2023/12/26 05:24:50;;;;;;;;;;;;;;;9.21;100.00;97984.92;109375;1251;59871;-76
2023/12/26 05:27:17;;;;;;;;;;;;;;;9.24;100.00;97983.29;109555;1251;59711;-77
2023/12/26 05:29:44;;;;;;;;;;;;;;;9.26;100.00;97984.01;109591;1251;59780;-77
2023/12/26 05:32:10;;;;;;;;;;;;;;;9.29;100.00;97977.23;109566;1251;66769;-76
2023/12/26 05:34:36;;;;;;;;;;;;;;;9.32;100.00;97973.81;109567;1251;60699;-77
2023/12/26 05:37:03;;;;;;;;;;;;;;;9.34;100.00;97968.81;109563;1251;59871;-76
2023/12/26 05:39:29;;;;;;;;;;;;;;;9.34;100.00;97962.77;109545;1251;59924;-76
2023/12/26 05:41:56;;;;;;;;;;;;;;;9.34;100.00;97960.70;109399;1251;59845;-76
2023/12/26 05:44:23;;;;;;;;;;;;;;;9.34;100.00;97959.82;109581;1251;59865;-76
2023/12/26 05:46:49;;;;;;;;;;;;;;;9.32;100.00;97955.70;109597;1251;60997;-76
2023/12/26 05:49:15;;;;;;;;;;;;;;;9.30;100.00;97953.39;109574;1251;59784;-76
2023/12/26 05:51:42;;;;;;;;;;;;;;;9.28;100.00;97946.29;109545;1251;59831;-76
2023/12/26 05:54:09;;;;;;;;;;;;;;;9.26;100.00;97943.60;109589;1251;59759;-76
2023/12/26 05:56:36;;;;;;;;;;;;;;;9.25;100.00;97949.50;109560;1251;67836;-76
2023/12/26 05:59:02;;;;;;;;;;;;;;;9.26;100.00;97947.68;109558;1251;59804;-76
2023/12/26 06:01:29;;;;;;;;;;;;;;;9.28;100.00;97943.83;109575;1251;59870;-76
2023/12/26 06:03:56;;;;;;;;;;;;;;;9.29;100.00;97948.17;109589;1251;59827;-77
2023/12/26 06:06:22;;;;;;;;;;;;;;;9.30;100.00;97938.35;109608;1251;59971;-77
2023/12/26 06:08:49;;;;;;;;;;;;;;;9.31;100.00;97934.52;109390;1251;66418;-76
2023/12/26 06:11:15;;;;;;;;;;;;;;;9.32;100.00;97931.09;109604;1251;61452;-77
2023/12/26 06:13:42;;;;;;;;;;;;;;;9.33;100.00;97934.38;109596;1251;59742;-77
2023/12/26 06:16:08;;;;;;;;;;;;;;;9.35;100.00;97942.91;109607;1251;59788;-76
2023/12/26 06:18:35;;;;;;;;;;;;;;;9.35;100.00;97944.13;109588;1251;59847;-76
2023/12/26 06:21:02;;;;;;;;;;;;;;;9.36;100.00;97938.73;109578;1250;66819;-76
2023/12/26 06:23:31;;;;;;;;;;;;;;;9.38;100.00;97937.73;109573;1251;61067;-76
2023/12/26 06:25:57;;;;;;;;;;;;;;;9.39;100.00;97941.29;109534;1251;65193;-76
2023/12/26 06:28:24;;;;;;;;;;;;;;;9.42;100.00;97942.13;109605;1251;59839;-77
2023/12/26 06:30:50;;;;;;;;;;;;;;;9.44;100.00;97944.98;109566;1251;59789;-76
2023/12/26 06:33:17;;;;;;;;;;;;;;;9.48;100.00;97946.48;109577;1251;59881;-76
2023/12/26 06:35:43;;;;;;;;;;;;;;;9.51;100.00;97939.66;109576;1250;61249;-77
2023/12/26 06:38:12;;;;;;;;;;;;;;;9.54;100.00;97944.93;109577;1251;60759;-76
2023/12/26 06:40:42;;;;;;;;;;;;;;;9.58;100.00;97946.91;109602;1251;59837;-76
2023/12/26 06:43:11;;;;;;;;;;;;;;;9.63;100.00;97951.46;109599;1251;59905;-76
2023/12/26 06:45:38;;;;;;;;;;;;;;;9.68;100.00;97949.83;109535;1251;66446;-76
2023/12/26 06:48:04;;;;;;;;;;;;;;;9.76;100.00;97950.79;109555;1250;60057;-76
2023/12/26 06:50:31;;;;;;;;;;;;;;;9.84;100.00;97953.16;109386;1251;64100;-77
2023/12/26 06:52:58;;;;;;;;;;;;;;;9.91;100.00;97954.55;109585;1251;59987;-76
2023/12/26 06:55:25;;;;;;;;;;;;;;;9.97;100.00;97952.83;109623;1251;59897;-76
2023/12/26 06:57:51;;;;;;;;;;;;;;;10.04;100.00;97962.17;109571;1251;66794;-76
2023/12/26 07:00:18;;;;;;;;;;;;;;;10.11;100.00;97963.61;109347;1251;60150;-76
2023/12/26 07:02:45;;;;;;;;;;;;;;;10.18;100.00;97962.83;109585;1251;65218;-77
2023/12/26 07:05:11;;;;;;;;;;;;;;;10.27;100.00;97972.56;109603;1251;60202;-76
2023/12/26 07:07:38;;;;;;;;;;;;;;;10.38;100.00;97970.27;109625;1251;59776;-77
2023/12/26 07:10:05;;;;;;;;;;;;;;;10.48;100.00;97972.09;109569;1251;67827;-76
2023/12/26 07:12:31;;;;;;;;;;;;;;;10.59;100.00;97980.83;109568;1251;60110;-77
2023/12/26 07:14:57;;;;;;;;;;;;;;;10.70;100.00;97985.95;109569;1251;59781;-77
2023/12/26 07:17:24;;;;;;;;;;;;;;;10.81;100.00;97991.38;109601;1251;59810;-77
2023/12/26 07:19:50;;;;;;;;;;;;;;;10.91;100.00;97999.06;109572;1251;59772;-78
2023/12/26 07:22:17;;;;;;;;;;;;;;;10.99;100.00;97997.86;109471;1251;59909;-77
2023/12/26 07:24:44;;;;;;;;;;;;;;;11.08;100.00;98003.20;109555;1251;59791;-78
2023/12/26 07:27:11;;;;;;;;;;;;;;;11.16;100.00;98012.60;109546;1251;64980;-77
2023/12/26 07:29:38;;;;;;;;;;;;;;;11.24;100.00;98015.09;109583;1251;60003;-76
2023/12/26 07:32:04;;;;;;;;;;;;;;;11.30;100.00;98020.70;109627;1251;59845;-78
2023/12/26 07:34:31;;;;;;;;;;;;;;;11.35;100.00;98023.45;109607;1251;66792;-78
2023/12/26 07:36:57;;;;;;;;;;;;;;;11.40;100.00;98022.80;109570;1250;59761;-77
2023/12/26 07:39:24;;;;;;;;;;;;;;;11.46;100.00;98027.46;109615;1251;62825;-76
2023/12/26 07:41:50;;;;;;;;;;;;;;;11.53;100.00;98030.48;109566;1251;59774;-77
2023/12/26 07:44:17;;;;;;;;;;;;;;;11.59;100.00;98032.78;109598;1251;59775;-78
2023/12/26 07:46:43;;;;;;;;;;;;;;;11.62;100.00;98031.56;109644;1250;67905;-78
2023/12/26 07:49:10;;;;;;;;;;;;;;;11.67;100.00;98040.64;109577;1251;61259;-78
2023/12/26 07:51:37;;;;;;;;;;;;;;;11.71;100.00;98038.80;109588;1251;59780;-77
2023/12/26 07:54:03;;;;;;;;;;;;;;;11.74;100.00;98038.94;109552;1251;60139;-78
2023/12/26 07:56:30;;;;;;;;;;;;;;;11.77;100.00;98040.60;109612;1251;59758;-76
2023/12/26 07:58:56;;;;;;;;;;;;;;;11.81;100.00;98051.95;109595;1251;59654;-76
2023/12/26 08:01:25;;;;;;;;;;;;;;;11.86;100.00;98048.23;109392;1251;59917;-78
2023/12/26 08:03:52;;;;;;;;;;;;;;;11.91;100.00;98047.07;109577;1251;63802;-76
2023/12/26 08:06:18;;;;;;;;;;;;;;;11.99;100.00;98045.13;109519;1251;59818;-78
2023/12/26 08:08:45;;;;;;;;;;;;;;;12.06;100.00;98045.38;109342;1251;59875;-77
2023/12/26 08:11:11;;;;;;;;;;;;;;;12.13;100.00;98054.27;109567;1251;66789;-79
2023/12/26 08:13:38;;;;;;;;;;;;;;;12.16;100.00;98053.09;109561;1251;59795;-78
2023/12/26 08:16:05;;;;;;;;;;;;;;;12.19;100.00;98054.23;109601;1251;64029;-78
2023/12/26 08:18:33;;;;;;;;;;;;;;;12.22;100.00;98066.23;109584;1251;59971;-77
2023/12/26 08:21:00;;;;;;;;;;;;;;;12.24;100.00;98065.94;109594;1251;59742;-78
2023/12/26 08:23:27;;;;;;;;;;;;;;;12.26;100.00;98069.08;109586;1251;67770;-78
2023/12/26 08:25:53;;;;;;;;;;;;;;;12.31;100.00;98072.03;109647;1250;59921;-78
2023/12/26 08:28:20;;;;;;;;;;;;;;;12.36;100.00;98074.98;109562;1251;59781;-77
2023/12/26 08:30:46;;;;;;;;;;;;;;;12.40;100.00;98071.27;109567;1251;59767;-77
2023/12/26 08:33:14;;;;;;;;;;;;;;;12.45;100.00;98071.69;109597;1251;59682;-78
2023/12/26 08:35:41;;;;;;;;;;;;;;;12.50;100.00;98078.91;109608;1251;66719;-78
2023/12/26 08:38:07;;;;;;;;;;;;;;;12.56;100.00;98081.98;109581;1251;61561;-78
2023/12/26 08:40:34;;;;;;;;;;;;;;;12.59;100.00;98082.90;109589;1251;59832;-78
2023/12/26 08:43:00;;;;;;;;;;;;;;;12.60;100.00;98088.00;109606;1251;59873;-79
2023/12/26 08:45:27;;;;;;;;;;;;;;;12.61;100.00;98089.13;109564;1251;59776;-79
2023/12/26 08:47:54;;;;;;;;;;;;;;;12.64;100.00;98091.91;109586;1251;66894;-79
2023/12/26 08:50:20;;;;;;;;;;;;;;;12.70;100.00;98091.21;109551;1251;60112;-79
2023/12/26 08:52:47;;;;;;;;;;;;;;;12.77;100.00;98098.21;109598;1251;63994;-79
2023/12/26 08:55:14;;;;;;;;;;;;;;;12.84;100.00;98099.73;109542;1253;60015;-79
2023/12/26 08:57:40;;;;;;;;;;;;;;;12.89;100.00;98104.59;109575;1251;59707;-78
2023/12/26 09:00:09;;;;;;;;;;;;;;;12.94;100.00;98100.98;109534;1251;66743;-78
2023/12/26 09:02:35;;;;;;;;;;;;;;;12.96;100.00;98099.52;109598;1251;60074;-79
2023/12/26 09:05:02;;;;;;;;;;;;;;;12.94;100.00;98102.40;109362;1251;60033;-79
2023/12/26 09:07:29;;;;;;;;;;;;;;;12.90;100.00;98111.85;109340;1251;59767;-77
2023/12/26 09:09:56;;;;;;;;;;;;;;;12.90;100.00;98107.88;109619;1251;59750;-75
2023/12/26 09:12:22;;;;;;;;;;;;;;;12.92;100.00;98118.98;109567;1250;66813;-79
2023/12/26 09:14:49;;;;;;;;;;;;;;;12.92;100.00;98116.23;109563;1251;59869;-75
2023/12/26 09:17:15;;;;;;;;;;;;;;;12.94;100.00;98115.93;109575;1251;59840;-77
2023/12/26 09:19:42;;;;;;;;;;;;;;;12.93;100.00;98124.02;109586;1251;59850;-76
2023/12/26 09:22:08;;;;;;;;;;;;;;;12.93;100.00;98122.95;109623;1251;59726;-77
2023/12/26 09:24:35;;;;;;;;;;;;;;;12.94;100.00;98123.54;109614;1250;60425;-76
2023/12/26 09:27:01;;;;;;;;;;;;;;;12.96;100.00;98119.68;109575;1251;59997;-77
2023/12/26 09:29:28;;;;;;;;;;;;;;;12.96;100.00;98117.38;109622;1251;59791;-77
2023/12/26 09:31:54;;;;;;;;;;;;;;;13.00;100.00;98126.14;109540;1253;59781;-75
2023/12/26 09:34:21;;;;;;;;;;;;;;;13.01;100.00;98132.66;109625;1251;59707;-76
2023/12/26 09:36:47;;;;;;;;;;;;;;;12.96;100.00;98136.80;109583;1251;59826;-76
2023/12/26 09:39:14;;;;;;;;;;;;;;;12.91;100.00;98130.60;109592;1250;61063;-77
2023/12/26 09:41:42;;;;;;;;;;;;;;;12.90;100.00;98140.18;109603;1251;59862;-78
2023/12/26 09:44:10;;;;;;;;;;;;;;;12.88;100.00;98135.77;109305;1251;60104;-77
2023/12/26 09:46:37;;;;;;;;;;;;;;;12.86;100.00;98134.87;109565;1251;59814;-77
2023/12/26 09:49:04;;;;;;;;;;;;;;;12.86;100.00;98138.02;109628;1250;67823;-77
2023/12/26 09:51:32;;;;;;;;;;;;;;;12.84;100.00;98132.92;109574;1251;60713;-77
2023/12/26 09:54:00;;;;;;;;;;;;;;;12.80;100.00;98119.86;109502;1251;64014;-78
2023/12/26 09:56:28;;;;;;;;;;;;;;;12.78;100.00;98125.93;109518;1251;59815;-77
2023/12/26 09:58:55;;;;;;;;;;;;;;;12.79;100.00;98125.02;109178;1256;59770;-77
2023/12/26 10:01:22;;;;;;;;;;;;;;;12.82;100.00;98125.80;109170;1256;68055;-77
2023/12/26 10:03:49;;;;;;;;;;;;;;;12.83;100.00;98134.05;109185;1256;61265;-79
2023/12/26 10:06:15;;;;;;;;;;;;;;;12.81;100.00;98136.95;109201;1256;65417;-78
2023/12/26 10:08:42;;;;;;;;;;;;;;;12.78;100.00;98145.98;109188;1256;59986;-75
2023/12/26 10:11:13;;;;;;;;;;;;;;;12.76;100.00;98147.85;109176;1256;59664;-77
2023/12/26 10:13:41;;;;;;;;;;;;;;;12.82;100.00;98150.76;109221;1256;65640;-78
2023/12/26 10:16:08;;;;;;;;;;;;;;;12.84;100.00;98146.58;109222;1256;60143;-77
2023/12/26 10:18:34;;;;;;;;;;;;;;;12.82;100.00;98134.27;109192;1256;64079;-76
2023/12/26 10:21:01;;;;;;;;;;;;;;;12.78;100.00;98132.02;109209;1256;59783;-76
2023/12/26 10:23:28;;;;;;;;;;;;;;;12.73;100.00;98136.53;109220;1256;59853;-78
2023/12/26 10:25:55;;;;;;;;;;;;;;;12.71;100.00;98141.20;109018;1256;66883;-77
2023/12/26 10:28:21;;;;;;;;;;;;;;;12.70;100.00;98134.64;109212;1256;61104;-76
2023/12/26 10:30:48;;;;;;;;;;;;;;;12.78;100.00;98138.93;109500;1251;65125;-77
2023/12/26 10:33:23;;;;;;;;;;;;;;;12.85;100.00;98137.27;109509;1251;59818;-78
2023/12/26 10:36:03;;;;;;;;;;;;;;;12.91;100.00;98144.88;109562;1251;59830;-77
2023/12/26 10:38:30;;;;;;;;;;;;;;;12.99;100.00;98146.38;109614;1251;67954;-78
2023/12/26 10:40:58;;;;;;;;;;;;;;;13.06;100.00;98154.23;109569;1251;60002;-79
2023/12/26 10:43:31;;;;;;;;;;;;;;;13.19;100.00;98160.70;109583;1251;65024;-77
2023/12/26 10:45:59;;;;;;;;;;;;;;;13.43;100.00;98164.34;109579;1250;59851;-77
2023/12/26 10:48:31;;;;;;;;;;;;;;;13.51;100.00;98166.37;109608;1251;59719;-78
2023/12/26 10:51:01;;;;;;;;;;;;;;;13.52;100.00;98169.70;109629;1250;67588;-80
2023/12/26 10:53:43;;;;;;;;;;;;;;;13.54;100.00;98176.80;109543;1250;61615;-78
2023/12/26 10:56:13;;;;;;;;;;;;;;;13.56;100.00;98175.62;109554;1251;65176;-78
2023/12/26 10:58:40;;;;;;;;;;;;;;;13.57;100.00;98174.94;109486;1251;59833;-78
2023/12/26 11:01:07;;;;;;;;;;;;;;;13.52;100.00;98180.27;109582;1250;59825;-78
2023/12/26 13:51:24;;;;;;;;;;;;;;;10.57;100.00;98329.27;109524;1251;59842;-76
2023/12/26 13:53:51;;;;;;;;;;;;;;;10.53;100.00;98328.30;109492;1251;67897;-76
2023/12/26 13:56:19;;;;;;;;;;;;;;;10.51;100.00;98329.58;109574;1251;60142;-75
2023/12/26 13:58:45;;;;;;;;;;;;;;;10.49;100.00;98325.05;109594;1251;65278;-77
2023/12/26 14:01:15;;;;;;;;;;;;;;;10.48;100.00;98333.52;109589;1251;60010;-76
2023/12/26 14:03:49;;;;;;;;;;;;;;;10.45;100.00;98334.28;109633;1251;59691;-76
2023/12/26 14:06:16;;;;;;;;;;;;;;;10.42;100.00;98338.21;109557;1251;66498;-78
2023/12/26 14:08:43;;;;;;;;;;;;;;;10.39;100.00;98344.20;109531;1250;60183;-77
2023/12/26 14:11:09;;;;;;;;;;;;;;;10.34;100.00;98342.55;109545;1251;59857;-76
2023/12/26 14:13:36;;;;;;;;;;;;;;;10.31;100.00;98340.89;109572;1251;60010;-76
2023/12/26 14:16:02;;;;;;;;;;;;;;;10.27;100.00;98333.85;109639;1251;60153;-77
2023/12/26 14:18:29;;;;;;;;;;;;;;;10.25;100.00;98331.71;109594;1251;59873;-77
2023/12/26 14:20:55;;;;;;;;;;;;;;;10.23;100.00;98334.88;109501;1251;59820;-77
2023/12/26 14:23:22;;;;;;;;;;;;;;;10.22;100.00;98343.48;109519;1251;59844;-78
2023/12/26 14:25:48;;;;;;;;;;;;;;;10.21;100.00;98347.14;109527;1251;59839;-75
2023/12/26 14:28:15;;;;;;;;;;;;;;;10.19;100.00;98351.66;109540;1251;59738;-75
2023/12/26 14:30:41;;;;;;;;;;;;;;;10.17;100.00;98354.33;109530;1251;59812;-75
2023/12/26 14:33:07;;;;;;;;;;;;;;;10.14;100.00;98356.67;109587;1250;59752;-77
2023/12/26 14:35:34;;;;;;;;;;;;;;;10.13;100.00;98359.96;109525;1251;59886;-77
2023/12/26 14:38:00;;;;;;;;;;;;;;;10.09;100.00;98356.84;109500;1251;59956;-76
2023/12/26 14:40:27;;;;;;;;;;;;;;;10.08;100.00;98365.46;109594;1251;59849;-75
2023/12/26 14:42:56;;;;;;;;;;;;;;;10.05;100.00;98358.72;109509;1251;59919;-78
2023/12/26 14:45:42;;;;;;;;;;;;;;;10.04;100.00;98364.34;109518;1251;60023;-76
2023/12/26 14:48:27;;;;;;;;;;;;;;;10.02;100.00;98365.73;109514;1251;65122;-78
2023/12/26 14:51:12;;;;;;;;;;;;;;;10.01;100.00;98367.45;109471;1253;60078;-76
2023/12/26 14:53:57;;;;;;;;;;;;;;;10.00;100.00;98368.00;109490;1252;59972;-77
2023/12/26 14:56:42;;;;;;;;;;;;;;;9.98;100.00;98372.44;109497;1253;77023;-77
2023/12/26 14:59:27;;;;;;;;;;;;;;;9.98;100.00;98370.68;109452;1253;61180;-75
2023/12/26 15:01:58;;;;;;;;;;;;;;;9.97;100.00;98373.52;109483;1251;63895;-76
2023/12/26 15:04:26;;;;;;;;;;;;;;;9.96;100.00;98373.79;109527;1251;59854;-76
2023/12/26 15:06:56;;;;;;;;;;;;;;;9.97;100.00;98376.23;109538;1251;59761;-75
2023/12/26 15:09:23;;;;;;;;;;;;;;;9.97;100.00;98381.71;109546;1251;68256;-76
2023/12/26 15:11:49;;;;;;;;;;;;;;;9.97;100.00;98389.20;109551;1251;60973;-77
2023/12/26 15:14:17;;;;;;;;;;;;;;;9.97;100.00;98388.33;109492;1251;64073;-76
2023/12/26 15:16:43;;;;;;;;;;;;;;;9.97;100.00;98385.48;109492;1251;59829;-75
2023/12/26 15:19:10;;;;;;;;;;;;;;;9.97;100.00;98390.41;109611;1251;59798;-75
2023/12/26 15:21:42;;;;;;;;;;;;;;;9.98;100.00;98389.09;109528;1251;60689;-76